Time;durP1;ratioP1;P1;durP2;ratioP2;P2;SDS_P1;SDS_P2;PMS_P1;PMS_P2;Temp;Humidity;BMP_temperature;BMP_pressure;BME280_temperature;BME280_humidity;BME280_pressure;Samples;Min_cycle;Max_cycle;Signal;HPM_P1;HPM_P2
2023/07/04 00:01:14;;;;;;;6.57;3.60;;;15.50;99.90;;;;;;5075037;28;20594;-71
2023/07/04 00:03:42;;;;;;;4.37;3.03;;;15.40;99.90;;;;;;5074942;28;20603;-71
2023/07/04 00:06:11;;;;;;;5.47;3.37;;;15.40;99.90;;;;;;5075241;28;20197;-71
2023/07/04 00:08:38;;;;;;;4.30;2.80;;;15.40;99.90;;;;;;5075057;28;20288;-71
2023/07/04 00:11:06;;;;;;;3.70;2.70;;;15.40;99.90;;;;;;5074956;28;20201;-71
2023/07/04 00:13:34;;;;;;;6.40;3.13;;;15.40;99.90;;;;;;5074905;28;20561;-71
2023/07/04 00:16:02;;;;;;;4.07;3.03;;;15.30;99.90;;;;;;5074830;28;20204;-71
2023/07/04 00:18:30;;;;;;;6.57;3.03;;;15.30;99.90;;;;;;5074794;28;20580;-71
2023/07/04 00:20:59;;;;;;;3.67;2.90;;;15.30;99.90;;;;;;5074950;28;20243;-71
2023/07/04 00:23:27;;;;;;;3.97;3.20;;;15.30;99.90;;;;;;5074181;28;20207;-71
2023/07/04 00:25:55;;;;;;;5.07;3.40;;;15.30;99.90;;;;;;5074647;28;20209;-71
2023/07/04 00:28:22;;;;;;;7.33;3.53;;;15.20;99.90;;;;;;5074639;28;20609;-71
2023/07/04 00:30:50;;;;;;;6.87;3.37;;;15.20;99.90;;;;;;5074918;28;20254;-71
2023/07/04 00:33:17;;;;;;;5.73;3.10;;;15.20;99.90;;;;;;5074466;28;20640;-71
2023/07/04 00:35:45;;;;;;;6.07;3.17;;;15.20;99.90;;;;;;5074617;28;20309;-71
2023/07/04 00:38:12;;;;;;;5.73;3.00;;;15.30;99.90;;;;;;5074472;28;20251;-71
2023/07/04 00:40:39;;;;;;;5.50;3.03;;;15.30;99.90;;;;;;5074342;28;20644;-71
2023/07/04 00:43:05;;;;;;;6.30;3.43;;;15.20;99.90;;;;;;5074222;28;20203;-71
2023/07/04 00:45:38;;;;;;;5.63;3.20;;;15.20;99.90;;;;;;5074337;28;20224;-71
2023/07/04 00:48:06;;;;;;;4.37;3.07;;;15.10;99.90;;;;;;5074385;28;20283;-71
2023/07/04 00:50:35;;;;;;;3.70;2.83;;;15.10;99.90;;;;;;5074288;28;20244;-71
2023/07/04 00:53:06;;;;;;;4.60;3.13;;;15.10;99.90;;;;;;5074155;28;20197;-71
2023/07/04 00:55:37;;;;;;;6.33;3.20;;;15.10;99.90;;;;;;5073816;28;20233;-71
2023/07/04 00:58:04;;;;;;;4.70;3.30;;;15.10;99.90;;;;;;5074231;28;20201;-71
2023/07/04 01:00:32;;;;;;;4.23;3.40;;;15.10;99.90;;;;;;5074086;28;20197;-71
2023/07/04 01:03:02;;;;;;;4.70;3.27;;;15.10;99.90;;;;;;5073960;28;20230;-71
2023/07/04 01:05:35;;;;;;;5.27;3.30;;;15.10;99.90;;;;;;5073796;28;20221;-71
2023/07/04 01:08:09;;;;;;;3.83;2.93;;;15.10;99.90;;;;;;5073789;28;20266;-71
2023/07/04 01:10:40;;;;;;;6.27;3.57;;;15.10;99.90;;;;;;5073950;28;20197;-71
2023/07/04 01:13:33;;;;;;;4.60;3.17;;;15.10;99.90;;;;;;5073823;28;20201;-71
2023/07/04 01:16:00;;;;;;;4.73;3.53;;;15.10;99.90;;;;;;5073660;28;20205;-71
2023/07/04 01:18:27;;;;;;;4.17;3.10;;;15.10;99.90;;;;;;5073597;28;20201;-71
2023/07/04 01:20:55;;;;;;;4.60;3.13;;;15.00;99.90;;;;;;5073780;28;20201;-71
2023/07/04 01:23:33;;;;;;;5.90;3.27;;;15.00;99.90;;;;;;5073677;28;20230;-71
2023/07/04 01:26:14;;;;;;;5.60;3.30;;;15.00;99.90;;;;;;5073502;28;20224;-71
2023/07/04 01:28:41;;;;;;;4.67;3.40;;;15.00;99.90;;;;;;5073399;28;20226;-71
2023/07/04 01:31:08;;;;;;;3.50;3.00;;;14.90;99.90;;;;;;5073605;28;20543;-71
2023/07/04 01:33:35;;;;;;;4.07;3.33;;;14.90;99.90;;;;;;5073601;28;20200;-71
2023/07/04 01:36:02;;;;;;;4.17;3.50;;;14.80;99.90;;;;;;5072404;28;20556;-71
2023/07/04 01:38:30;;;;;;;4.90;3.40;;;14.80;99.90;;;;;;5073325;28;20201;-71
2023/07/04 01:40:57;;;;;;;5.90;3.73;;;14.80;99.90;;;;;;5073318;28;20193;-71
2023/07/04 01:43:25;;;;;;;6.43;3.50;;;14.80;99.90;;;;;;5073243;28;20259;-71
2023/07/04 01:45:52;;;;;;;4.60;3.40;;;14.80;99.90;;;;;;5073252;28;20228;-71
2023/07/04 01:48:18;;;;;;;4.60;3.20;;;14.80;99.90;;;;;;5073096;28;20201;-71
2023/07/04 01:50:45;;;;;;;5.47;3.33;;;14.70;99.90;;;;;;5073063;28;20201;-71
2023/07/04 01:53:12;;;;;;;5.60;3.37;;;14.70;99.90;;;;;;5073248;28;20197;-71
2023/07/04 01:55:38;;;;;;;4.23;3.23;;;14.80;99.90;;;;;;5072811;28;20700;-71
2023/07/04 01:58:05;;;;;;;5.40;3.43;;;14.80;99.90;;;;;;5073050;28;20201;-71
2023/07/04 02:00:33;;;;;;;6.47;3.30;;;14.70;99.90;;;;;;5073166;28;20205;-71
2023/07/04 02:03:00;;;;;;;4.93;3.47;;;14.70;99.90;;;;;;5073156;28;20254;-71
2023/07/04 02:05:27;;;;;;;5.03;3.50;;;14.70;99.90;;;;;;5073047;28;20225;-72
2023/07/04 02:07:53;;;;;;;4.27;3.13;;;14.70;99.90;;;;;;5072949;28;20239;-71
2023/07/04 02:10:20;;;;;;;5.00;3.27;;;14.60;99.90;;;;;;5072885;28;20193;-71
2023/07/04 02:12:46;;;;;;;6.27;3.37;;;14.60;99.90;;;;;;5073094;28;20200;-71
2023/07/04 02:15:13;;;;;;;4.20;3.73;;;14.60;99.90;;;;;;5073058;28;20205;-71
2023/07/04 02:17:42;;;;;;;5.03;3.63;;;14.50;99.90;;;;;;5072932;28;20196;-71
2023/07/04 02:20:10;;;;;;;6.13;3.93;;;14.50;99.90;;;;;;5072757;28;20665;-71
2023/07/04 02:22:42;;;;;;;3.77;3.37;;;14.50;99.90;;;;;;5072854;28;20201;-71
2023/07/04 02:25:09;;;;;;;5.77;3.37;;;14.30;99.90;;;;;;5072850;28;20222;-71
2023/07/04 02:27:36;;;;;;;5.57;3.60;;;14.30;99.90;;;;;;5072978;28;20201;-72
2023/07/04 02:30:03;;;;;;;4.60;3.23;;;14.30;99.90;;;;;;5072824;28;20193;-71
2023/07/04 02:32:30;;;;;;;3.87;3.43;;;14.40;99.90;;;;;;5072812;28;20207;-72
2023/07/04 02:34:58;;;;;;;6.67;3.90;;;14.40;99.90;;;;;;5072629;28;20706;-71
2023/07/04 02:37:25;;;;;;;5.67;3.47;;;14.50;99.90;;;;;;5072558;28;20254;-71
2023/07/04 02:39:52;;;;;;;5.70;3.67;;;14.50;99.90;;;;;;5072776;28;20250;-71
2023/07/04 02:42:18;;;;;;;5.93;3.77;;;14.60;99.90;;;;;;5072734;28;20197;-72
2023/07/04 02:44:45;;;;;;;7.77;3.57;;;14.50;99.90;;;;;;5072616;28;20224;-71
2023/07/04 02:47:12;;;;;;;7.33;4.23;;;14.60;99.90;;;;;;5075080;28;20255;-72
2023/07/04 02:49:39;;;;;;;7.30;4.20;;;14.60;99.90;;;;;;5076581;28;20197;-70
2023/07/04 02:52:07;;;;;;;8.23;3.83;;;14.70;99.90;;;;;;5076373;28;20201;-70
2023/07/04 02:54:34;;;;;;;5.70;3.93;;;14.70;99.90;;;;;;5076544;28;20197;-71
2023/07/04 02:57:01;;;;;;;4.60;3.63;;;14.70;99.90;;;;;;5076204;28;20289;-70
2023/07/04 02:59:27;;;;;;;5.87;4.13;;;14.70;99.90;;;;;;5076501;28;20197;-71
2023/07/04 03:01:54;;;;;;;5.17;3.57;;;14.70;99.90;;;;;;5076347;28;20193;-70
2023/07/04 03:04:21;;;;;;;7.10;4.10;;;14.80;99.90;;;;;;5076226;28;20227;-70
2023/07/04 03:06:47;;;;;;;7.40;4.30;;;14.90;99.90;;;;;;5076156;28;20201;-71
2023/07/04 03:09:15;;;;;;;7.13;3.33;;;14.90;99.90;;;;;;5076049;28;20201;-71
2023/07/04 03:11:42;;;;;;;4.90;3.53;;;15.00;99.90;;;;;;5076054;28;20657;-71
2023/07/04 03:14:08;;;;;;;6.23;3.97;;;15.10;99.90;;;;;;5076197;28;20258;-71
2023/07/04 03:16:35;;;;;;;4.77;3.30;;;15.20;99.90;;;;;;5076117;28;20618;-71
2023/07/04 03:19:02;;;;;;;3.67;3.20;;;15.20;99.90;;;;;;5076000;28;20197;-71
2023/07/04 03:21:28;;;;;;;6.07;3.10;;;15.20;99.90;;;;;;5075914;28;20205;-71
2023/07/04 03:23:55;;;;;;;7.07;3.53;;;15.20;99.90;;;;;;5076029;28;20197;-71
2023/07/04 03:26:23;;;;;;;7.77;3.60;;;15.30;99.90;;;;;;5075798;28;20266;-70
2023/07/04 03:28:49;;;;;;;5.10;3.17;;;15.40;99.90;;;;;;5075856;28;20193;-70
2023/07/04 03:31:16;;;;;;;8.23;3.73;;;15.50;99.90;;;;;;5075692;28;20259;-71
2023/07/04 03:33:43;;;;;;;4.37;3.33;;;15.50;99.90;;;;;;5075598;28;20222;-71
2023/07/04 03:36:09;;;;;;;5.13;3.40;;;15.50;99.90;;;;;;5075571;28;20877;-70
2023/07/04 03:38:36;;;;;;;5.00;3.20;;;15.60;99.90;;;;;;5075708;28;20201;-71
2023/07/04 03:41:03;;;;;;;3.57;3.27;;;15.60;99.90;;;;;;5075611;28;20247;-70
2023/07/04 03:43:31;;;;;;;5.73;3.50;;;15.60;99.90;;;;;;5075514;28;20279;-70
2023/07/04 03:45:57;;;;;;;5.33;3.40;;;15.60;99.90;;;;;;5075411;28;20220;-71
2023/07/04 03:48:24;;;;;;;3.10;2.80;;;15.60;99.90;;;;;;5075420;28;20197;-71
2023/07/04 03:50:51;;;;;;;7.33;4.00;;;15.60;99.90;;;;;;5075262;28;20649;-70
2023/07/04 03:53:18;;;;;;;3.90;3.33;;;15.60;99.90;;;;;;5075501;28;20275;-71
2023/07/04 03:55:44;;;;;;;7.60;3.53;;;15.60;99.90;;;;;;5075095;28;20255;-71
2023/07/04 03:58:11;;;;;;;4.80;3.50;;;15.70;99.90;;;;;;5074306;28;20197;-71
2023/07/04 04:00:39;;;;;;;4.13;3.40;;;15.70;99.90;;;;;;5075150;28;20197;-70
2023/07/04 04:03:05;;;;;;;7.53;3.30;;;15.70;99.90;;;;;;5075364;28;20193;-70
2023/07/04 04:05:32;;;;;;;4.17;3.23;;;15.70;99.90;;;;;;5075151;28;20221;-71
2023/07/04 04:07:59;;;;;;;3.63;2.90;;;15.80;99.90;;;;;;5075072;28;20259;-70
2023/07/04 04:10:25;;;;;;;5.13;3.47;;;15.80;99.90;;;;;;5075061;28;20262;-71
2023/07/04 04:12:52;;;;;;;4.20;3.40;;;15.80;99.90;;;;;;5074572;28;20649;-70
2023/07/04 04:15:18;;;;;;;6.10;3.20;;;15.90;99.90;;;;;;5074738;28;20200;-71
2023/07/04 04:17:47;;;;;;;7.53;3.33;;;15.80;99.90;;;;;;5074682;28;20730;-71
2023/07/04 04:20:14;;;;;;;6.50;3.00;;;15.80;99.90;;;;;;5074903;28;20246;-71
2023/07/04 04:22:45;;;;;;;5.50;3.42;;;15.80;99.90;;;;;;5074778;28;20201;-71
2023/07/04 04:25:12;;;;;;;5.03;3.57;;;15.80;99.90;;;;;;5074607;28;20692;-71
2023/07/04 04:27:39;;;;;;;5.40;3.30;;;15.80;99.90;;;;;;5074616;28;20242;-71
2023/07/04 04:30:08;;;;;;;4.10;3.20;;;15.80;99.90;;;;;;5074519;28;20280;-72
2023/07/04 04:32:35;;;;;;;7.27;3.30;;;15.80;99.90;;;;;;5074682;28;20192;-71
2023/07/04 04:35:03;;;;;;;4.17;3.50;;;15.80;99.90;;;;;;5074543;28;20197;-71
2023/07/04 04:37:30;;;;;;;3.97;3.10;;;15.70;99.90;;;;;;5074548;28;20255;-71
2023/07/04 04:39:56;;;;;;;4.37;3.70;;;15.80;99.90;;;;;;5074356;28;20227;-71
2023/07/04 04:42:24;;;;;;;4.53;3.30;;;15.80;99.90;;;;;;5074259;28;20201;-71
2023/07/04 04:44:53;;;;;;;4.93;3.43;;;15.80;99.90;;;;;;5074551;28;20208;-71
2023/07/04 04:47:22;;;;;;;5.90;3.60;;;15.90;99.90;;;;;;5074036;28;20714;-70
2023/07/04 04:49:48;;;;;;;8.13;3.60;;;16.10;99.90;;;;;;5074206;28;20197;-71
2023/07/04 04:52:16;;;;;;;4.97;3.70;;;16.20;99.90;;;;;;5074164;28;20201;-70
2023/07/04 04:54:44;;;;;;;3.77;3.37;;;16.30;99.90;;;;;;5074206;28;20561;-71
2023/07/04 04:57:10;;;;;;;5.33;3.67;;;16.50;99.90;;;;;;5073845;28;20236;-71
2023/07/04 04:59:37;;;;;;;4.55;3.20;;;16.60;99.90;;;;;;5074164;28;20251;-70
2023/07/04 05:02:04;;;;;;;5.50;3.47;;;16.60;99.90;;;;;;5073907;28;20710;-71
2023/07/04 05:04:31;;;;;;;3.42;3.13;;;16.60;99.90;;;;;;5074005;28;20197;-71
2023/07/04 05:06:57;;;;;;;6.03;3.35;;;16.60;99.90;;;;;;5073845;28;20225;-71
2023/07/04 05:09:25;;;;;;;6.22;3.45;;;16.60;99.90;;;;;;5073616;28;20717;-70
2023/07/04 05:11:52;;;;;;;5.57;3.10;;;16.60;99.90;;;;;;5073699;28;20200;-70
2023/07/04 05:14:19;;;;;;;4.40;3.35;;;16.50;99.90;;;;;;5073794;28;20197;-71
2023/07/04 05:16:45;;;;;;;4.15;3.65;;;16.50;99.90;;;;;;5073669;28;20208;-70
2023/07/04 05:19:12;;;;;;;4.15;3.45;;;16.50;99.90;;;;;;5073570;28;20201;-70
2023/07/04 05:21:38;;;;;;;6.95;3.63;;;16.60;99.90;;;;;;5073583;28;20197;-70
2023/07/04 05:24:06;;;;;;;5.05;3.97;;;16.70;99.90;;;;;;5073324;28;20200;-70
2023/07/04 05:26:34;;;;;;;5.50;3.42;;;16.80;99.90;;;;;;5073450;28;20274;-70
2023/07/04 05:29:02;;;;;;;3.85;3.25;;;17.00;99.90;;;;;;5073386;28;20622;-71
2023/07/04 05:31:30;;;;;;;5.40;3.35;;;17.20;99.90;;;;;;5073250;28;20283;-71
2023/07/04 05:33:57;;;;;;;4.22;3.40;;;17.20;99.90;;;;;;5073166;28;20656;-71
2023/07/04 05:36:26;;;;;;;6.18;3.15;;;17.10;99.90;;;;;;5073303;28;20200;-70
2023/07/04 05:38:54;;;;;;;4.85;3.55;;;17.20;99.90;;;;;;5073308;28;20633;-71
2023/07/04 05:41:25;;;;;;;7.20;3.75;;;17.30;99.90;;;;;;5073342;28;20204;-71
2023/07/04 05:43:55;;;;;;;4.80;3.22;;;17.40;99.90;;;;;;5073181;28;20201;-71
2023/07/04 05:46:21;;;;;;;4.78;3.80;;;17.40;99.90;;;;;;5073024;28;20213;-71
2023/07/04 05:48:48;;;;;;;6.00;3.10;;;17.30;99.90;;;;;;5073013;28;20265;-72
2023/07/04 05:51:16;;;;;;;4.72;3.30;;;17.50;99.90;;;;;;5072855;28;20714;-71
2023/07/04 05:53:46;;;;;;;5.68;3.00;;;17.60;99.90;;;;;;5073123;28;20259;-72
2023/07/04 05:56:15;;;;;;;4.70;3.42;;;17.80;99.90;;;;;;5072899;28;20229;-71
2023/07/04 05:58:44;;;;;;;3.70;3.20;;;18.00;99.90;;;;;;5072890;28;20208;-71
2023/07/04 06:01:15;;;;;;;7.10;3.38;;;18.10;99.90;;;;;;5072933;28;20197;-71
2023/07/04 06:03:43;;;;;;;9.75;3.40;;;18.40;99.90;;;;;;5072733;28;20254;-72
2023/07/04 06:06:18;;;;;;;4.00;2.92;;;18.70;99.90;;;;;;5073026;28;20228;-72
2023/07/04 06:08:44;;;;;;;5.10;2.72;;;18.80;99.90;;;;;;5072683;28;20659;-71
2023/07/04 06:11:11;;;;;;;5.10;3.08;;;18.90;99.90;;;;;;5072908;28;20255;-72
2023/07/04 06:13:38;;;;;;;4.30;3.30;;;19.00;99.90;;;;;;5072690;28;20209;-72
2023/07/04 06:16:05;;;;;;;5.35;3.47;;;18.90;99.90;;;;;;5072542;28;20578;-71
2023/07/04 06:18:33;;;;;;;5.85;3.33;;;18.70;99.90;;;;;;5072440;28;20560;-71
2023/07/04 06:21:08;;;;;;;6.28;3.55;;;18.70;99.90;;;;;;5072375;28;20197;-72
2023/07/04 06:23:34;;;;;;;6.07;3.30;;;18.60;99.90;;;;;;5072618;28;20196;-71
2023/07/04 06:26:01;;;;;;;5.30;3.28;;;18.60;99.90;;;;;;5072567;28;20217;-71
2023/07/04 06:28:27;;;;;;;4.70;3.35;;;18.40;99.90;;;;;;5072571;28;20197;-71
2023/07/04 06:30:54;;;;;;;6.97;3.80;;;18.60;99.90;;;;;;5072495;28;20317;-71
2023/07/04 06:33:21;;;;;;;5.32;3.40;;;18.60;99.90;;;;;;5072727;28;20201;-71
2023/07/04 06:35:49;;;;;;;6.65;3.42;;;18.60;99.90;;;;;;5072668;28;20208;-71
2023/07/04 06:38:15;;;;;;;6.25;3.95;;;18.80;99.90;;;;;;5072418;28;20710;-71
2023/07/04 06:40:42;;;;;;;7.10;4.10;;;19.00;99.90;;;;;;5072395;28;20200;-72
2023/07/04 06:43:08;;;;;;;5.18;3.65;;;18.90;99.90;;;;;;5072242;28;20250;-72
2023/07/04 06:45:36;;;;;;;7.55;3.85;;;19.10;99.90;;;;;;5072402;28;20342;-71
2023/07/04 06:48:03;;;;;;;9.18;4.25;;;19.10;99.90;;;;;;5072366;28;20200;-72
2023/07/04 06:50:29;;;;;;;7.25;4.10;;;19.10;99.90;;;;;;5072378;28;20656;-71
2023/07/04 06:52:57;;;;;;;9.10;4.03;;;18.90;99.90;;;;;;5072397;28;20258;-73
2023/07/04 06:55:24;;;;;;;6.85;4.35;;;18.80;99.90;;;;;;5072094;28;20677;-71
2023/07/04 06:57:50;;;;;;;8.82;4.57;;;19.00;99.90;;;;;;5072182;28;20541;-71
2023/07/04 07:00:18;;;;;;;11.23;4.53;;;19.00;99.90;;;;;;5072179;28;20645;-73
2023/07/04 07:02:49;;;;;;;8.68;4.28;;;19.00;99.90;;;;;;5072296;28;20560;-71
2023/07/04 07:05:15;;;;;;;8.32;4.43;;;18.90;99.90;;;;;;5072352;28;20209;-71
2023/07/04 07:07:42;;;;;;;9.90;4.50;;;19.00;99.90;;;;;;5071905;28;20708;-71
2023/07/04 07:10:11;;;;;;;10.73;4.47;;;19.20;99.90;;;;;;5072149;28;20675;-71
2023/07/04 07:12:37;;;;;;;10.35;4.95;;;19.40;99.90;;;;;;5072200;28;20212;-72
2023/07/04 07:15:05;;;;;;;9.07;4.68;;;19.50;99.90;;;;;;5072285;28;20603;-72
2023/07/04 07:17:33;;;;;;;8.18;5.18;;;19.70;99.90;;;;;;5072278;28;20197;-72
2023/07/04 07:19:59;;;;;;;6.32;4.13;;;19.50;99.90;;;;;;5072278;28;20201;-72
2023/07/04 07:22:26;;;;;;;11.23;4.78;;;19.70;99.90;;;;;;5071994;28;20660;-72
2023/07/04 07:24:53;;;;;;;8.90;4.72;;;19.80;99.90;;;;;;5071856;28;20204;-71
2023/07/04 07:27:21;;;;;;;7.15;4.85;;;19.80;99.90;;;;;;5072316;28;20224;-72
2023/07/04 07:29:48;;;;;;;8.00;4.63;;;19.70;99.90;;;;;;5072177;28;20201;-72
2023/07/04 07:32:15;;;;;;;9.13;4.80;;;19.80;99.90;;;;;;5072114;28;20197;-71
2023/07/04 07:34:41;;;;;;;7.00;4.47;;;19.90;99.90;;;;;;5075092;28;20192;-72
2023/07/04 07:37:09;;;;;;;9.30;4.45;;;20.10;99.90;;;;;;5075607;28;20231;-72
2023/07/04 07:39:35;;;;;;;9.43;4.70;;;20.30;99.90;;;;;;5075482;28;20291;-72
2023/07/04 07:42:02;;;;;;;10.85;5.20;;;20.20;99.90;;;;;;5075573;28;20255;-72
2023/07/04 07:44:30;;;;;;;9.13;4.60;;;20.10;99.90;;;;;;5075426;28;20201;-72
2023/07/04 07:46:56;;;;;;;9.25;4.88;;;20.30;99.90;;;;;;5075399;28;20266;-72
2023/07/04 07:49:23;;;;;;;8.82;4.85;;;20.80;99.90;;;;;;5075347;28;20250;-74
2023/07/04 07:51:49;;;;;;;8.80;5.35;;;21.00;99.90;;;;;;5075311;28;20255;-72
2023/07/04 07:54:16;;;;;;;9.27;4.97;;;20.70;99.90;;;;;;5075114;28;20201;-72
2023/07/04 07:56:45;;;;;;;10.20;5.32;;;21.10;99.90;;;;;;5075162;28;20596;-72
2023/07/04 07:59:13;;;;;;;12.07;5.20;;;21.40;99.90;;;;;;5075270;28;20200;-72
2023/07/04 08:01:41;;;;;;;8.10;4.78;;;21.20;99.90;;;;;;5075240;28;20201;-72
2023/07/04 08:04:08;;;;;;;9.18;5.00;;;21.00;99.90;;;;;;5075167;28;20247;-72
2023/07/04 08:06:38;;;;;;;9.50;5.78;;;21.00;99.90;;;;;;5074961;28;20623;-71
2023/07/04 08:09:06;;;;;;;9.30;5.57;;;20.40;99.90;;;;;;5075106;28;20201;-71
2023/07/04 08:11:34;;;;;;;10.52;5.65;;;20.40;99.90;;;;;;5074969;28;20193;-71
2023/07/04 08:14:01;;;;;;;14.80;6.05;;;20.20;99.90;;;;;;5075023;28;20197;-71
2023/07/04 08:16:30;;;;;;;9.85;5.47;;;20.40;99.90;;;;;;5075029;28;20209;-71
2023/07/04 08:19:00;;;;;;;11.23;5.30;;;20.50;99.90;;;;;;5074684;28;20204;-71
2023/07/04 08:21:28;;;;;;;8.65;5.68;;;20.60;99.90;;;;;;5074951;28;20201;-71
2023/07/04 08:23:55;;;;;;;8.60;5.53;;;20.40;99.90;;;;;;5074858;28;20192;-71
2023/07/04 08:26:23;;;;;;;12.35;5.40;;;20.10;99.90;;;;;;5074496;28;20597;-71
2023/07/04 08:28:52;;;;;;;9.38;5.78;;;20.10;99.90;;;;;;5074594;28;20204;-71
2023/07/04 08:31:18;;;;;;;10.45;5.32;;;20.20;99.90;;;;;;5074708;28;20342;-71
2023/07/04 08:33:45;;;;;;;10.48;6.22;;;20.60;99.90;;;;;;5074401;28;20555;-70
2023/07/04 08:36:14;;;;;;;10.98;6.22;;;20.70;99.90;;;;;;5074162;28;20675;-71
2023/07/04 08:38:42;;;;;;;11.95;6.75;;;21.00;99.90;;;;;;5073992;28;20675;-71
2023/07/04 08:41:24;;;;;;;10.00;6.88;;;20.90;99.90;;;;;;5074256;28;20201;-71
2023/07/04 08:43:55;;;;;;;12.73;8.65;;;20.80;99.90;;;;;;5073710;28;20251;-71
2023/07/04 08:46:22;;;;;;;13.00;8.85;;;20.90;99.90;;;;;;5074185;28;20228;-70
2023/07/04 08:48:49;;;;;;;13.05;7.57;;;21.00;99.90;;;;;;5074069;28;20196;-71
2023/07/04 08:51:21;;;;;;;10.63;7.00;;;21.30;99.90;;;;;;5073954;28;20270;-71
2023/07/04 08:53:54;;;;;;;13.02;7.20;;;21.60;99.90;;;;;;5073882;28;20641;-71
2023/07/04 08:56:31;;;;;;;14.18;7.70;;;22.10;99.90;;;;;;5073707;28;20264;-71
2023/07/04 08:59:07;;;;;;;9.88;7.55;;;22.60;99.90;;;;;;5073704;28;20258;-71
2023/07/04 09:01:47;;;;;;;15.63;9.00;;;22.60;99.90;;;;;;5073962;28;20201;-71
2023/07/04 09:04:21;;;;;;;12.50;8.68;;;21.70;99.90;;;;;;5073635;28;20613;-71
2023/07/04 09:06:55;;;;;;;16.05;8.73;;;21.80;99.90;;;;;;5073590;28;20691;-71
2023/07/04 09:09:29;;;;;;;16.65;8.65;;;22.30;99.50;;;;;;5073890;28;20254;-71
2023/07/04 09:11:56;;;;;;;17.13;10.07;;;23.10;98.30;;;;;;5073818;28;20193;-72
2023/07/04 09:14:27;;;;;;;12.57;9.13;;;22.70;97.10;;;;;;5073693;28;20250;-71
2023/07/04 09:16:57;;;;;;;13.82;9.75;;;23.00;96.70;;;;;;5073594;28;20266;-71
2023/07/04 09:19:24;;;;;;;13.98;9.20;;;23.60;95.40;;;;;;5073382;28;20193;-72
2023/07/04 09:21:52;;;;;;;13.73;8.85;;;22.80;95.60;;;;;;5073595;28;20193;-71
2023/07/04 09:24:19;;;;;;;14.30;10.23;;;22.70;95.40;;;;;;5073591;28;20201;-71
2023/07/04 09:26:49;;;;;;;13.65;10.63;;;22.80;95.40;;;;;;5073207;28;20740;-71
2023/07/04 09:29:19;;;;;;;14.98;11.25;;;22.50;93.70;;;;;;5073475;28;20251;-71
2023/07/04 09:31:47;;;;;;;13.50;10.63;;;22.30;94.50;;;;;;5073372;28;20201;-71
2023/07/04 09:34:17;;;;;;;14.43;9.50;;;22.80;94.40;;;;;;5073180;28;20560;-71
2023/07/04 09:36:45;;;;;;;12.75;9.48;;;23.30;93.60;;;;;;5073181;28;20710;-72
2023/07/04 09:39:13;;;;;;;12.95;9.70;;;23.10;93.60;;;;;;5073052;28;20619;-71
2023/07/04 09:41:41;;;;;;;13.25;8.93;;;22.60;94.40;;;;;;5073135;28;20197;-71
2023/07/04 09:44:16;;;;;;;12.75;8.60;;;22.50;94.90;;;;;;5072994;28;20196;-71
2023/07/04 09:46:51;;;;;;;11.60;8.57;;;22.10;94.70;;;;;;5072934;28;20603;-71
2023/07/04 09:49:26;;;;;;;10.10;8.63;;;22.20;95.00;;;;;;5072857;28;20656;-71
2023/07/04 09:52:02;;;;;;;11.10;8.60;;;22.20;95.10;;;;;;5073111;28;20196;-71
2023/07/04 09:54:31;;;;;;;11.63;7.93;;;22.80;95.10;;;;;;5072713;28;20196;-71
2023/07/04 09:57:15;;;;;;;15.25;10.00;;;23.80;93.40;;;;;;5071894;28;20229;-71
2023/07/04 09:59:43;;;;;;;18.30;10.10;;;23.70;91.10;;;;;;5073060;28;20219;-72
2023/07/04 10:02:14;;;;;;;11.98;9.98;;;24.60;89.90;;;;;;5072857;28;20242;-71
2023/07/04 10:04:41;;;;;;;15.07;12.95;;;25.70;85.00;;;;;;5072744;28;20373;-71
2023/07/04 10:07:13;;;;;;;16.50;12.07;;;24.00;77.30;;;;;;5072447;28;20753;-71
2023/07/04 10:09:47;;;;;;;14.27;11.15;;;23.60;80.30;;;;;;5072566;28;20200;-71
2023/07/04 10:12:17;;;;;;;16.15;11.75;;;23.10;83.30;;;;;;5072887;28;20200;-71
2023/07/04 10:14:48;;;;;;;12.98;10.48;;;23.30;82.60;;;;;;5072509;28;20687;-71
2023/07/04 10:17:17;;;;;;;11.55;9.98;;;22.90;84.10;;;;;;5072623;28;20235;-71
2023/07/04 10:19:47;;;;;;;11.75;8.52;;;23.10;85.00;;;;;;5072465;28;20201;-71
2023/07/04 10:22:13;;;;;;;11.52;9.55;;;23.20;85.60;;;;;;5072524;28;20201;-71
2023/07/04 10:24:40;;;;;;;12.32;9.40;;;22.80;86.30;;;;;;5072697;28;20223;-71
2023/07/04 10:27:12;;;;;;;11.77;9.05;;;23.00;87.30;;;;;;5072611;28;20228;-71
2023/07/04 10:29:43;;;;;;;12.23;9.35;;;23.10;86.00;;;;;;5072575;28;20201;-71
2023/07/04 10:32:13;;;;;;;10.00;8.73;;;23.30;86.00;;;;;;5072572;28;20196;-71
2023/07/04 10:34:41;;;;;;;12.23;9.80;;;23.10;86.00;;;;;;5072383;28;20240;-71
2023/07/04 10:37:10;;;;;;;13.30;9.75;;;23.20;86.70;;;;;;5072397;28;20213;-71
2023/07/04 10:39:38;;;;;;;11.38;8.82;;;24.60;84.00;;;;;;5072502;28;20205;-72
2023/07/04 10:42:12;;;;;;;9.35;8.45;;;24.80;81.10;;;;;;5072447;28;20197;-72
2023/07/04 10:44:42;;;;;;;10.90;8.98;;;25.80;79.50;;;;;;5072427;28;20246;-73
2023/07/04 10:47:15;;;;;;;12.88;8.95;;;26.60;75.50;;;;;;5072168;28;20286;-72
2023/07/04 10:49:48;;;;;;;10.13;9.13;;;27.80;73.40;;;;;;5072465;28;20246;-71
2023/07/04 10:52:19;;;;;;;11.68;10.05;;;27.80;67.40;;;;;;5072357;28;20626;-71
2023/07/04 10:54:45;;;;;;;10.85;9.65;;;26.00;69.80;;;;;;5072302;28;20208;-72
2023/07/04 10:57:23;;;;;;;11.18;9.68;;;25.90;69.80;;;;;;5072048;28;20712;-71
2023/07/04 10:59:53;;;;;;;15.02;10.45;;;26.70;67.50;;;;;;5072447;28;20196;-71
2023/07/04 11:02:29;;;;;;;13.30;11.90;;;27.20;64.90;;;;;;5072243;28;20292;-71
2023/07/04 11:05:06;;;;;;;16.85;12.40;;;26.50;61.20;;;;;;5072175;28;20196;-71
2023/07/04 11:07:35;;;;;;;14.40;12.05;;;26.90;59.00;;;;;;5073506;28;20303;-71
2023/07/04 11:10:05;;;;;;;13.98;12.38;;;26.50;59.10;;;;;;5075812;28;20205;-71
2023/07/04 11:12:34;;;;;;;12.40;11.07;;;26.50;58.70;;;;;;5076305;28;20205;-71
2023/07/04 11:15:04;;;;;;;14.13;11.60;;;27.30;58.50;;;;;;5075632;28;20561;-71
2023/07/04 11:17:34;;;;;;;13.27;11.35;;;28.20;55.90;;;;;;5075797;28;20205;-71
2023/07/04 11:20:10;;;;;;;12.00;10.80;;;27.30;55.20;;;;;;5075644;28;20201;-71
2023/07/04 11:22:46;;;;;;;12.32;11.02;;;27.20;55.20;;;;;;5075689;28;20649;-71
2023/07/04 11:25:34;;;;;;;11.93;10.70;;;27.60;53.30;;;;;;5075878;28;20210;-71
2023/07/04 11:28:25;;;;;;;13.15;10.90;;;26.80;54.60;;;;;;5075693;28;20224;-71
2023/07/04 11:30:52;;;;;;;13.57;11.45;;;26.30;55.30;;;;;;5075561;28;20232;-71
2023/07/04 11:33:39;;;;;;;13.45;11.10;;;25.80;55.40;;;;;;5075800;28;20250;-72
2023/07/04 11:36:09;;;;;;;12.13;9.82;;;24.90;56.90;;;;;;5075638;28;20197;-70
2023/07/04 11:38:42;;;;;;;11.98;10.30;;;25.40;56.00;;;;;;5075515;28;20208;-71
2023/07/04 11:41:09;;;;;;;11.13;9.93;;;26.70;55.00;;;;;;5075300;28;20220;-71
2023/07/04 11:43:45;;;;;;;12.57;10.05;;;28.10;53.70;;;;;;5075425;28;20247;-71
2023/07/04 11:46:22;;;;;;;10.57;9.23;;;28.00;52.60;;;;;;5075458;28;20607;-71
2023/07/04 11:48:51;;;;;;;9.90;8.90;;;29.50;49.70;;;;;;5075286;28;20282;-71
2023/07/04 11:51:20;;;;;;;14.10;9.60;;;28.40;47.80;;;;;;5075109;28;20204;-71
2023/07/04 11:53:53;;;;;;;9.60;8.55;;;28.20;48.40;;;;;;5075002;28;20193;-71
2023/07/04 11:56:33;;;;;;;10.40;9.35;;;27.40;48.00;;;;;;5075040;28;20237;-71
2023/07/04 11:59:37;;;;;;;12.45;10.18;;;25.50;49.80;;;;;;5075246;28;20608;-71
2023/07/04 12:02:14;;;;;;;11.13;9.43;;;25.20;52.10;;;;;;5074947;28;20243;-71
2023/07/04 12:04:49;;;;;;;12.65;9.25;;;25.70;51.90;;;;;;5074811;28;20196;-71
2023/07/04 12:07:21;;;;;;;9.63;8.60;;;26.20;51.30;;;;;;5074807;28;20193;-71
2023/07/04 12:09:51;;;;;;;9.85;8.38;;;27.30;52.10;;;;;;5074640;28;20224;-71
2023/07/04 12:12:23;;;;;;;14.20;8.95;;;28.30;50.70;;;;;;5074791;28;20205;-71
2023/07/04 12:14:57;;;;;;;11.45;8.63;;;27.30;50.70;;;;;;5074759;28;20714;-71
2023/07/04 12:17:25;;;;;;;8.93;8.02;;;28.10;49.90;;;;;;5074936;28;20197;-71
2023/07/04 12:20:00;;;;;;;10.07;9.00;;;29.20;47.40;;;;;;5073860;28;20201;-71
2023/07/04 12:22:27;;;;;;;11.13;9.20;;;28.30;45.70;;;;;;5074646;28;20255;-71
2023/07/04 12:24:53;;;;;;;9.18;8.02;;;27.20;47.00;;;;;;5074380;28;20649;-71
2023/07/04 12:27:26;;;;;;;9.95;8.95;;;27.60;47.70;;;;;;5074634;28;20197;-71
2023/07/04 12:29:53;;;;;;;10.02;8.38;;;28.50;46.80;;;;;;5074616;28;20205;-71
2023/07/04 12:32:21;;;;;;;10.65;8.38;;;29.40;46.50;;;;;;5074500;28;20255;-71
2023/07/04 12:34:52;;;;;;;10.55;9.20;;;28.60;45.00;;;;;;5074230;28;20661;-71
2023/07/04 12:37:19;;;;;;;9.48;8.50;;;26.60;47.70;;;;;;5074272;28;20193;-70
2023/07/04 12:39:48;;;;;;;8.75;7.72;;;26.60;48.30;;;;;;5074218;28;20201;-71
2023/07/04 12:42:21;;;;;;;10.93;7.72;;;27.10;47.60;;;;;;5074341;28;20246;-71
2023/07/04 12:44:48;;;;;;;9.73;8.63;;;27.90;46.70;;;;;;5074166;28;20702;-70
2023/07/04 12:47:20;;;;;;;11.45;7.95;;;27.80;46.70;;;;;;5074296;28;20202;-70
2023/07/04 12:49:50;;;;;;;13.85;7.28;;;26.90;47.60;;;;;;5074003;28;20224;-70
2023/07/04 12:52:17;;;;;;;11.48;7.43;;;28.60;47.20;;;;;;5074317;28;20197;-72